createdAt,value
2022-11-16T00:01:25.881Z,8.35
2022-11-16T00:03:54.642Z,8.33
2022-11-16T00:06:21.984Z,8.37
2022-11-16T00:09:10.470Z,8.37
2022-11-16T00:11:37.931Z,8.22
2022-11-16T00:14:05.433Z,8.20
2022-11-16T00:16:31.910Z,8.17
2022-11-16T00:19:00.663Z,8.16
2022-11-16T00:21:27.680Z,8.11
2022-11-16T00:23:54.426Z,8.11
2022-11-16T00:26:21.784Z,8.12
2022-11-16T00:28:48.775Z,8.15
2022-11-16T00:31:15.351Z,8.11
2022-11-16T00:33:41.780Z,8.14
2022-11-16T00:36:11.777Z,8.11
2022-11-16T00:38:38.761Z,8.13
2022-11-16T00:41:05.818Z,8.16
2022-11-16T00:43:32.778Z,8.17
2022-11-16T00:45:59.139Z,8.12
2022-11-16T00:48:25.842Z,8.05
2022-11-16T00:50:52.378Z,8.05
2022-11-16T00:53:20.263Z,8.03
2022-11-16T00:55:48.366Z,7.99
2022-11-16T00:58:15.517Z,7.97
2022-11-16T01:00:43.365Z,7.93
2022-11-16T01:03:10.008Z,7.84
2022-11-16T01:05:36.844Z,7.84
2022-11-16T01:08:03.476Z,7.73
2022-11-16T01:10:30.464Z,7.70
2022-11-16T01:12:57.283Z,7.73
2022-11-16T01:15:26.229Z,7.65
2022-11-16T01:17:54.862Z,7.68
2022-11-16T01:20:24.143Z,7.63
2022-11-16T01:22:50.605Z,7.62
2022-11-16T01:25:17.131Z,7.63
2022-11-16T01:27:44.116Z,7.52
2022-11-16T01:30:13.656Z,7.60
2022-11-16T01:32:40.092Z,7.53
2022-11-16T01:35:07.541Z,7.49
2022-11-16T01:37:33.894Z,7.50
2022-11-16T01:40:00.709Z,7.44
2022-11-16T01:42:28.937Z,7.43
2022-11-16T01:45:06.600Z,7.43
2022-11-16T01:47:33.095Z,7.41
2022-11-16T01:50:06.836Z,7.46
2022-11-16T01:52:36.492Z,7.56
2022-11-16T01:55:04.139Z,7.41
2022-11-16T01:57:37.811Z,7.43
2022-11-16T02:00:07.666Z,7.36
2022-11-16T02:02:34.220Z,7.32
2022-11-16T02:05:02.436Z,7.34
2022-11-16T02:08:12.898Z,7.29
2022-11-16T02:10:48.861Z,7.27
2022-11-16T02:13:33.955Z,7.30
2022-11-16T02:16:12.709Z,7.41
2022-11-16T02:18:55.814Z,7.24
2022-11-16T02:21:31.273Z,7.27
2022-11-16T02:24:11.578Z,7.27
2022-11-16T02:27:15.445Z,7.14
2022-11-16T02:29:45.739Z,7.12
2022-11-16T02:32:19.194Z,7.15
2022-11-16T02:35:01.139Z,7.12
2022-11-16T02:37:31.992Z,7.16
2022-11-16T02:40:00.575Z,7.14
2022-11-16T02:42:35.760Z,7.11
2022-11-16T02:45:05.540Z,7.18
2022-11-16T02:47:34.464Z,7.01
2022-11-16T02:50:09.356Z,7.03
2022-11-16T02:52:37.086Z,7.00
2022-11-16T02:55:04.311Z,7.05
2022-11-16T02:57:42.329Z,7.04
2022-11-16T03:00:15.836Z,6.89
2022-11-16T03:03:16.858Z,6.86
2022-11-16T03:06:11.474Z,6.85
2022-11-16T03:08:55.092Z,6.89
2022-11-16T03:11:40.046Z,6.82
2022-11-16T03:14:11.775Z,6.74
2022-11-16T03:16:43.596Z,6.78
2022-11-16T03:19:14.044Z,6.79
2022-11-16T03:21:45.407Z,6.73
2022-11-16T03:24:11.887Z,6.72
2022-11-16T03:26:51.158Z,6.78
2022-11-16T03:29:40.422Z,6.70
2022-11-16T03:32:16.454Z,6.66
2022-11-16T03:34:49.812Z,6.71
2022-11-16T03:37:16.463Z,6.71
2022-11-16T03:39:44.239Z,6.63
2022-11-16T03:42:14.382Z,6.68
2022-11-16T03:44:42.442Z,6.64
2022-11-16T03:47:08.791Z,6.61
2022-11-16T03:49:35.192Z,6.61
2022-11-16T03:52:01.556Z,6.59
2022-11-16T03:54:27.914Z,6.61
2022-11-16T03:56:54.370Z,6.57
2022-11-16T03:59:20.781Z,6.61
2022-11-16T04:01:47.114Z,6.57
2022-11-16T04:04:34.038Z,6.58
2022-11-16T04:07:18.880Z,6.62
2022-11-16T04:10:03.862Z,6.57
2022-11-16T04:12:48.613Z,6.59
2022-11-16T04:15:33.290Z,6.55
2022-11-16T04:18:18.146Z,6.58
2022-11-16T04:21:05.401Z,6.56
2022-11-16T04:23:50.385Z,6.58
2022-11-16T04:26:16.882Z,6.57
2022-11-16T04:28:43.270Z,6.54
2022-11-16T04:31:28.331Z,6.58
2022-11-16T04:34:13.249Z,6.57
2022-11-16T04:36:57.910Z,6.49
2022-11-16T04:39:24.571Z,6.49
2022-11-16T04:42:09.590Z,6.53
2022-11-16T04:44:55.350Z,6.42
2022-11-16T04:47:21.776Z,6.33
2022-11-16T04:49:48.276Z,6.42
2022-11-16T04:52:14.710Z,6.31
2022-11-16T04:54:41.077Z,6.36
2022-11-16T04:57:07.422Z,6.35
2022-11-16T04:59:33.802Z,6.32
2022-11-16T05:02:09.380Z,6.33
2022-11-16T05:04:37.447Z,6.24
2022-11-16T05:07:04.626Z,6.35
2022-11-16T05:09:31.283Z,6.25
2022-11-16T05:11:57.919Z,6.26
2022-11-16T05:14:24.321Z,6.33
2022-11-16T05:16:51.309Z,6.31
2022-11-16T05:19:36.424Z,6.29
2022-11-16T05:22:02.756Z,6.42
2022-11-16T05:24:35.231Z,6.24
2022-11-16T05:27:04.496Z,6.23
2022-11-16T05:29:31.117Z,6.18
2022-11-16T05:31:58.266Z,6.29
2022-11-16T05:34:25.317Z,6.35
2022-11-16T05:36:51.705Z,6.26
2022-11-16T05:39:18.248Z,6.22
2022-11-16T05:41:44.897Z,6.16
2022-11-16T05:44:11.822Z,6.19
2022-11-16T05:46:38.404Z,6.14
2022-11-16T05:49:07.749Z,6.19
2022-11-16T05:51:39.098Z,6.28
2022-11-16T05:54:05.974Z,6.23
2022-11-16T05:56:34.165Z,6.17
2022-11-16T05:59:00.864Z,6.23
2022-11-16T06:01:27.382Z,6.24
2022-11-16T06:03:53.800Z,6.26
2022-11-16T06:06:20.574Z,6.20
2022-11-16T06:08:47.135Z,6.15
2022-11-16T06:11:14.121Z,6.10
2022-11-16T06:13:40.486Z,6.08
2022-11-16T06:16:07.211Z,6.13
2022-11-16T06:18:37.292Z,6.27
2022-11-16T06:21:03.982Z,6.19
2022-11-16T06:23:30.306Z,6.21
2022-11-16T06:25:56.913Z,6.21
2022-11-16T06:28:23.990Z,6.26
2022-11-16T06:30:50.400Z,6.16
2022-11-16T06:33:17.553Z,6.13
2022-11-16T06:35:44.522Z,5.94
2022-11-16T06:38:11.151Z,5.86
2022-11-16T06:40:38.302Z,6.03
2022-11-16T06:43:04.630Z,5.99
2022-11-16T06:45:31.036Z,5.90
2022-11-16T06:47:57.356Z,5.90
2022-11-16T06:50:23.729Z,5.97
2022-11-16T06:52:50.059Z,5.79
2022-11-16T06:55:16.702Z,5.86
2022-11-16T06:57:43.051Z,5.83
2022-11-16T07:00:10.888Z,5.88
2022-11-16T07:02:38.418Z,5.74
2022-11-16T07:05:06.256Z,5.79
2022-11-16T07:07:33.428Z,5.74
2022-11-16T07:10:00.239Z,5.74
2022-11-16T07:12:27.247Z,5.77
2022-11-16T07:14:53.622Z,5.76
2022-11-16T07:17:19.946Z,5.84
2022-11-16T07:19:46.268Z,5.72
2022-11-16T07:22:12.657Z,5.70
2022-11-16T07:24:38.988Z,5.70
2022-11-16T07:27:08.340Z,5.75
2022-11-16T07:29:34.752Z,5.74
2022-11-16T07:32:01.122Z,5.72
2022-11-16T07:34:27.460Z,5.71
2022-11-16T07:36:53.834Z,5.84
2022-11-16T07:39:21.785Z,5.84
2022-11-16T07:41:50.303Z,5.81
2022-11-16T07:44:16.631Z,5.73
2022-11-16T07:46:47.904Z,5.75
2022-11-16T07:49:16.460Z,5.76
2022-11-16T07:51:43.531Z,5.74
2022-11-16T07:54:13.829Z,5.78
2022-11-16T07:56:41.357Z,5.77
2022-11-16T07:59:08.107Z,5.83
2022-11-16T08:01:34.875Z,5.83
2022-11-16T08:04:04.193Z,5.75
2022-11-16T08:06:32.150Z,5.85
2022-11-16T08:08:59.302Z,5.78
2022-11-16T08:11:26.564Z,5.94
2022-11-16T08:13:53.085Z,5.85
2022-11-16T08:16:21.835Z,5.91
2022-11-16T08:18:48.685Z,5.88
2022-11-16T08:21:16.699Z,5.79
2022-11-16T08:23:44.842Z,5.79
2022-11-16T08:26:15.307Z,5.81
2022-11-16T08:28:46.658Z,5.80
2022-11-16T08:31:19.409Z,5.88
2022-11-16T08:33:49.033Z,5.96
2022-11-16T08:36:18.614Z,5.84
2022-11-16T08:38:46.490Z,5.88
2022-11-16T08:41:13.881Z,5.86
2022-11-16T08:43:40.682Z,5.91
2022-11-16T08:46:09.051Z,5.88
2022-11-16T08:48:37.002Z,5.86
2022-11-16T08:51:17.569Z,5.89
2022-11-16T08:53:44.718Z,5.96
2022-11-16T08:56:13.605Z,5.87
2022-11-16T08:58:46.651Z,5.85
2022-11-16T09:01:15.908Z,5.89
2022-11-16T09:03:42.646Z,5.97
2022-11-16T09:06:10.291Z,5.86
2022-11-16T09:08:38.319Z,5.89
2022-11-16T09:11:06.394Z,5.94
2022-11-16T09:13:32.984Z,5.86
2022-11-16T09:16:00.461Z,6.00
2022-11-16T09:18:28.086Z,6.02
2022-11-16T09:20:55.673Z,5.94
2022-11-16T09:23:25.498Z,5.98
2022-11-16T09:25:53.480Z,5.92
2022-11-16T09:28:21.454Z,5.92
2022-11-16T09:30:50.812Z,5.87
2022-11-16T09:33:17.439Z,5.84
2022-11-16T09:35:44.002Z,5.90
2022-11-16T09:38:12.704Z,5.78
2022-11-16T09:40:46.230Z,5.85
2022-11-16T09:43:39.556Z,5.87
2022-11-16T09:46:23.861Z,5.83
2022-11-16T09:48:51.029Z,5.89
2022-11-16T09:51:21.020Z,5.89
2022-11-16T09:53:58.269Z,5.89
2022-11-16T09:56:27.446Z,5.97
2022-11-16T09:59:13.593Z,6.03
2022-11-16T10:02:19.558Z,5.92
2022-11-16T10:04:58.620Z,5.89
2022-11-16T10:07:36.395Z,5.87
2022-11-16T10:10:02.947Z,6.06
2022-11-16T10:12:46.587Z,6.01
2022-11-16T10:15:31.010Z,5.98
2022-11-16T10:18:28.914Z,5.73
2022-11-16T10:20:58.110Z,5.72
2022-11-16T10:23:45.405Z,5.68
2022-11-16T10:26:24.000Z,5.78
2022-11-16T10:28:56.497Z,5.68
2022-11-16T10:31:53.197Z,5.83
2022-11-16T10:34:24.935Z,5.53
2022-11-16T10:36:54.896Z,5.59
2022-11-16T10:39:21.777Z,5.53
2022-11-16T10:41:50.669Z,5.59
2022-11-16T10:44:38.864Z,5.67
2022-11-16T10:47:16.947Z,5.54
2022-11-16T10:50:16.871Z,5.55
2022-11-16T10:52:43.279Z,5.51
2022-11-16T10:55:18.266Z,5.53
2022-11-16T10:58:02.632Z,5.50
2022-11-16T11:00:41.329Z,5.52
2022-11-16T11:03:09.559Z,5.60
2022-11-16T11:05:36.662Z,5.67
2022-11-16T11:08:06.496Z,5.65
2022-11-16T11:10:37.692Z,5.53
2022-11-16T11:13:10.181Z,5.56
2022-11-16T11:15:42.275Z,5.60
2022-11-16T11:18:23.830Z,5.53
2022-11-16T11:21:05.311Z,5.62
2022-11-16T11:23:46.772Z,5.53
2022-11-16T11:26:35.817Z,5.57
2022-11-16T11:29:22.198Z,5.61
2022-11-16T11:32:04.043Z,5.65
2022-11-16T11:34:34.900Z,5.67
2022-11-16T11:37:03.757Z,5.71
2022-11-16T11:39:34.026Z,5.71
2022-11-16T11:42:14.427Z,5.77
2022-11-16T11:44:47.415Z,5.84
2022-11-16T11:47:57.302Z,5.81
2022-11-16T11:50:40.217Z,5.92
2022-11-16T11:53:21.011Z,5.88
2022-11-16T11:55:57.682Z,6.05
2022-11-16T11:58:32.983Z,6.00
2022-11-16T12:01:33.600Z,6.08
2022-11-16T12:04:32.864Z,5.94
2022-11-16T12:07:32.121Z,5.98
2022-11-16T12:10:46.815Z,5.90
2022-11-16T12:13:39.897Z,5.93
2022-11-16T12:16:20.362Z,6.00
2022-11-16T12:19:16.882Z,6.03
2022-11-16T12:22:03.122Z,6.06
2022-11-16T12:24:49.467Z,6.11
2022-11-16T12:27:26.906Z,6.02
2022-11-16T12:30:16.415Z,6.01
2022-11-16T12:32:58.294Z,6.12
2022-11-16T12:35:27.782Z,6.07
2022-11-16T12:38:09.331Z,6.04
2022-11-16T12:41:16.418Z,6.07
2022-11-16T12:44:02.757Z,6.19
2022-11-16T12:46:54.107Z,6.19
2022-11-16T12:50:00.073Z,6.15
2022-11-16T12:52:41.379Z,6.22
2022-11-16T12:55:33.243Z,6.17
2022-11-16T12:58:02.936Z,6.16
2022-11-16T13:00:40.947Z,6.16
2022-11-16T13:03:28.219Z,6.18
2022-11-16T13:06:00.065Z,6.25
2022-11-16T13:08:38.073Z,6.28
2022-11-16T13:11:17.155Z,6.27
2022-11-16T13:13:51.398Z,6.27
2022-11-16T13:16:20.460Z,6.20
2022-11-16T13:18:47.227Z,6.18
2022-11-16T13:21:25.773Z,6.31
2022-11-16T13:24:15.809Z,6.32
2022-11-16T13:26:56.152Z,6.27
2022-11-16T13:29:34.055Z,6.30
2022-11-16T13:32:08.761Z,6.25
2022-11-16T13:34:38.876Z,6.27
2022-11-16T13:37:39.299Z,6.27
2022-11-16T13:40:05.588Z,6.32
2022-11-16T13:42:34.542Z,6.28
2022-11-16T13:45:20.545Z,6.33
2022-11-16T13:47:55.948Z,6.38
2022-11-16T13:50:33.136Z,6.36
2022-11-16T13:56:15.996Z,6.38
2022-11-16T13:58:49.496Z,6.27
2022-11-16T14:01:17.439Z,6.26
2022-11-16T14:03:45.160Z,6.28
2022-11-16T14:06:23.800Z,6.24
2022-11-16T14:08:57.799Z,6.20
2022-11-16T14:11:34.688Z,6.25
2022-11-16T14:14:05.602Z,6.24
2022-11-16T14:16:43.567Z,6.16
2022-11-16T14:19:51.899Z,6.20
2022-11-16T14:22:21.242Z,6.17
2022-11-16T14:25:00.486Z,6.17
2022-11-16T14:28:09.929Z,6.09
2022-11-16T14:30:52.471Z,6.15
2022-11-16T14:33:31.500Z,6.09
2022-11-16T14:35:59.097Z,6.08
2022-11-16T14:38:41.555Z,6.07
2022-11-16T14:41:23.376Z,6.00
2022-11-16T14:43:54.194Z,6.02
2022-11-16T14:46:23.528Z,6.03
2022-11-16T14:48:50.510Z,5.92
2022-11-16T14:51:27.171Z,5.93
2022-11-16T14:53:59.202Z,6.02
2022-11-16T14:56:25.642Z,5.98
2022-11-16T14:58:52.962Z,5.87
2022-11-16T15:01:22.628Z,5.96
2022-11-16T15:04:09.176Z,5.90
2022-11-16T15:06:42.024Z,5.93
2022-11-16T15:09:17.390Z,5.91
2022-11-16T15:12:07.329Z,5.91
2022-11-16T15:14:40.682Z,5.84
2022-11-16T15:17:08.922Z,5.83
2022-11-16T15:19:35.770Z,5.84
2022-11-16T15:22:04.430Z,5.88
2022-11-16T15:24:35.032Z,6.02
2022-11-16T15:27:25.590Z,5.80
2022-11-16T15:29:52.138Z,5.82
2022-11-16T15:32:18.571Z,5.75
2022-11-16T15:34:53.013Z,5.86
2022-11-16T15:37:31.135Z,5.78
2022-11-16T15:39:59.894Z,5.76
2022-11-16T15:42:28.153Z,5.75
2022-11-16T15:44:55.538Z,5.79
2022-11-16T15:47:22.989Z,5.69
2022-11-16T15:49:52.977Z,5.75
2022-11-16T15:52:50.270Z,5.70
2022-11-16T15:55:38.543Z,5.65
2022-11-16T15:58:25.708Z,5.67
2022-11-16T16:00:53.535Z,5.74
2022-11-16T16:03:28.431Z,5.61
2022-11-16T16:05:55.124Z,5.67
2022-11-16T16:08:29.878Z,5.62
2022-11-16T16:11:05.126Z,5.64
2022-11-16T16:13:37.650Z,5.60
2022-11-16T16:16:36.166Z,5.70
2022-11-16T16:19:24.122Z,5.70
2022-11-16T16:21:50.830Z,5.67
2022-11-16T16:24:44.354Z,5.62
2022-11-16T16:27:18.437Z,5.54
2022-11-16T16:29:58.369Z,5.66
2022-11-16T16:32:26.205Z,5.60
2022-11-16T16:34:57.590Z,5.59
2022-11-16T16:37:26.839Z,5.60
2022-11-16T16:39:53.332Z,5.65
2022-11-16T16:42:19.888Z,5.56
2022-11-16T16:44:47.775Z,5.63
2022-11-16T16:47:14.953Z,5.54
2022-11-16T16:49:41.716Z,5.58
2022-11-16T16:52:08.416Z,5.60
2022-11-16T16:54:34.771Z,5.58
2022-11-16T16:57:03.747Z,5.58
2022-11-16T16:59:30.963Z,5.61
2022-11-16T17:01:58.522Z,5.61
2022-11-16T17:04:25.397Z,5.61
2022-11-16T17:06:52.652Z,5.53
2022-11-16T17:09:19.082Z,5.53
2022-11-16T17:11:47.367Z,5.56
2022-11-16T17:14:13.738Z,5.61
2022-11-16T17:16:40.154Z,5.61
2022-11-16T17:19:06.588Z,5.57
2022-11-16T17:21:32.931Z,5.57
2022-11-16T17:23:59.277Z,5.55
2022-11-16T17:26:29.174Z,5.60
2022-11-16T17:28:57.034Z,5.53
2022-11-16T17:31:24.570Z,5.55
2022-11-16T17:33:51.395Z,5.57
2022-11-16T17:36:17.883Z,5.43
2022-11-16T17:38:45.012Z,5.44
2022-11-16T17:41:16.357Z,5.35
2022-11-16T17:43:44.909Z,5.32
2022-11-16T17:46:16.154Z,5.34
2022-11-16T17:48:44.269Z,5.22
2022-11-16T17:51:11.624Z,5.31
2022-11-16T17:53:39.839Z,5.24
2022-11-16T17:56:06.821Z,5.34
2022-11-16T17:58:34.335Z,5.19
2022-11-16T18:01:00.696Z,5.22
2022-11-16T18:03:28.342Z,5.10
2022-11-16T18:06:09.119Z,5.10
2022-11-16T18:08:36.674Z,5.16
2022-11-16T18:11:09.604Z,5.21
2022-11-16T18:13:37.177Z,5.09
2022-11-16T18:16:07.894Z,5.16
2022-11-16T18:18:34.469Z,5.16
2022-11-16T18:21:01.327Z,5.08
2022-11-16T18:23:29.031Z,5.09
2022-11-16T18:25:55.836Z,5.04
2022-11-16T18:28:22.966Z,5.12
2022-11-16T18:30:49.489Z,5.06
2022-11-16T18:33:16.449Z,5.09
2022-11-16T18:35:43.486Z,5.06
2022-11-16T18:38:13.064Z,5.04
2022-11-16T18:40:40.569Z,5.05
2022-11-16T18:43:12.527Z,5.05
2022-11-16T18:45:38.895Z,5.03
2022-11-16T18:48:05.250Z,5.04
2022-11-16T18:50:31.611Z,4.96
2022-11-16T18:52:57.950Z,4.95
2022-11-16T18:55:24.315Z,4.94
2022-11-16T18:57:50.634Z,4.99
2022-11-16T19:00:19.358Z,5.10
2022-11-16T19:02:45.723Z,5.00
2022-11-16T19:05:12.083Z,4.92
2022-11-16T19:07:38.581Z,5.00
2022-11-16T19:10:05.383Z,4.99
2022-11-16T19:12:31.697Z,4.88
2022-11-16T19:14:58.410Z,4.91
2022-11-16T19:17:25.120Z,4.83
2022-11-16T19:19:51.913Z,4.87
2022-11-16T19:22:19.561Z,4.85
2022-11-16T19:24:46.515Z,4.90
2022-11-16T19:27:12.894Z,4.84
2022-11-16T19:29:39.245Z,4.85
2022-11-16T19:32:05.585Z,4.85
2022-11-16T19:34:33.606Z,4.84
2022-11-16T19:37:00.122Z,4.82
2022-11-16T19:39:26.884Z,4.95
2022-11-16T19:41:53.207Z,4.83
2022-11-16T19:44:20.408Z,4.83
2022-11-16T19:46:46.758Z,4.85
2022-11-16T19:49:20.029Z,4.86
2022-11-16T19:51:46.698Z,5.01
2022-11-16T19:54:14.750Z,4.77
2022-11-16T19:56:41.970Z,4.84
2022-11-16T19:59:08.331Z,4.81
2022-11-16T20:01:35.147Z,4.70
2022-11-16T20:04:03.891Z,4.80
2022-11-16T20:06:36.197Z,4.74
2022-11-16T20:09:11.515Z,4.81
2022-11-16T20:11:40.433Z,4.71
2022-11-16T20:14:09.110Z,4.67
2022-11-16T20:16:39.374Z,4.71
2022-11-16T20:19:07.601Z,4.69
2022-11-16T20:21:36.796Z,4.63
2022-11-16T20:24:07.124Z,4.68
2022-11-16T20:26:35.356Z,4.70
2022-11-16T20:29:01.873Z,4.66
2022-11-16T20:31:30.485Z,4.74
2022-11-16T20:34:01.995Z,4.70
2022-11-16T20:36:29.983Z,4.62
2022-11-16T20:38:58.185Z,4.67
2022-11-16T20:41:26.991Z,4.67
2022-11-16T20:43:55.391Z,4.71
2022-11-16T20:46:23.886Z,4.63
2022-11-16T20:48:50.525Z,4.75
2022-11-16T20:51:19.170Z,4.68
2022-11-16T20:53:47.513Z,4.67
2022-11-16T20:56:15.577Z,4.65
2022-11-16T20:58:41.907Z,4.65
2022-11-16T21:01:12.480Z,4.65
2022-11-16T21:03:39.733Z,4.51
2022-11-16T21:06:10.113Z,4.51
2022-11-16T21:08:37.911Z,4.61
2022-11-16T21:11:16.067Z,4.43
2022-11-16T21:14:00.926Z,4.40
2022-11-16T21:16:27.240Z,4.42
2022-11-16T21:18:55.347Z,4.34
2022-11-16T21:21:21.723Z,4.38
2022-11-16T21:23:51.706Z,4.33
2022-11-16T21:26:25.051Z,4.27
2022-11-16T21:28:51.990Z,4.22
2022-11-16T21:31:21.115Z,4.20
2022-11-16T21:33:48.254Z,4.30
2022-11-16T21:36:17.625Z,4.17
2022-11-16T21:38:44.433Z,4.15
2022-11-16T21:41:12.238Z,4.16
2022-11-16T21:43:40.482Z,4.14
2022-11-16T21:46:10.736Z,4.10
2022-11-16T21:48:37.566Z,4.17
2022-11-16T21:51:06.467Z,4.20
2022-11-16T21:53:33.996Z,4.05
2022-11-16T21:56:00.834Z,4.07
2022-11-16T21:58:27.194Z,4.13
2022-11-16T22:00:58.007Z,4.13
2022-11-16T22:03:25.973Z,4.03
2022-11-16T22:06:12.136Z,4.04
2022-11-16T22:08:38.592Z,4.03
2022-11-16T22:11:05.342Z,4.04
2022-11-16T22:13:31.812Z,4.12
2022-11-16T22:15:58.456Z,4.09
2022-11-16T22:18:24.759Z,4.11
2022-11-16T22:20:51.137Z,4.15
2022-11-16T22:23:22.473Z,4.06
2022-11-16T22:25:49.763Z,4.17
2022-11-16T22:28:21.019Z,4.11
2022-11-16T22:30:51.598Z,4.09
2022-11-16T22:33:18.609Z,4.18
2022-11-16T22:35:47.333Z,4.13
2022-11-16T22:38:13.636Z,4.09
2022-11-16T22:40:40.000Z,4.10
2022-11-16T22:43:06.355Z,4.20
2022-11-16T22:45:32.716Z,4.20
2022-11-16T22:47:59.095Z,4.12
2022-11-16T22:50:25.610Z,4.17
2022-11-16T22:52:51.943Z,4.12
2022-11-16T22:55:18.314Z,4.13
2022-11-16T22:57:44.676Z,4.31
2022-11-16T23:00:12.313Z,4.18
2022-11-16T23:02:38.630Z,4.14
2022-11-16T23:05:05.375Z,4.27
2022-11-16T23:07:31.846Z,4.20
2022-11-16T23:09:58.316Z,4.19
2022-11-16T23:12:42.931Z,4.14
2022-11-16T23:15:30.926Z,4.19
2022-11-16T23:17:57.487Z,4.20
2022-11-16T23:20:42.523Z,4.19
2022-11-16T23:23:36.626Z,4.24
2022-11-16T23:26:25.147Z,4.13
2022-11-16T23:28:51.461Z,4.15
2022-11-16T23:31:17.824Z,4.19
2022-11-16T23:33:44.161Z,4.14
2022-11-16T23:36:13.993Z,4.17
2022-11-16T23:38:40.652Z,4.18
2022-11-16T23:41:30.686Z,4.18
2022-11-16T23:43:59.960Z,4.12
2022-11-16T23:46:31.236Z,4.21
2022-11-16T23:48:58.276Z,4.09
2022-11-16T23:51:25.153Z,4.11
2022-11-16T23:53:52.923Z,4.09
2022-11-16T23:56:21.551Z,4.10
2022-11-16T23:58:48.317Z,4.07
